METAR Data
IDs: Format: Raw Decoded Include TAF

Data at: 0540 UTC 24 Sep 2018

PHKO 240453Z 20008KT 10SM SCT060 28/21 A2985 RMK AO2 SLP109 T02780211
PHKO 240353Z 24007KT 10SM SCT050 28/22 A2983 RMK AO2 SLP101 T02830217
PHKO 240253Z 23007KT 10SM SCT050 28/22 A2981 RMK AO2 SLP094 T02830222 55004
PHKO 240153Z 26007KT 10SM SCT040 29/22 A2980 RMK AO2 SLP091 T02890217
PHKO 240053Z 28008KT 10SM CLR 30/22 A2980 RMK AO2 SLP092 T03000217
PHKO 232353Z 29008KT 10SM FEW045 SCT070 29/22 A2982 RMK AO2 SLP098 T02940217 10300 20261 58022
PHKO 232253Z 28006KT 10SM SCT040 30/22 A2985 RMK AO2 SLP107 T03000222
PHKO 232153Z 26007KT 10SM FEW045 SCT060 29/22 A2987 RMK AO2 SLP115 T02940222
PHKO 232053Z 24008KT 10SM FEW045 SCT070 29/22 A2989 RMK AO2 SLP120 T02940217 50001
PHKO 231953Z COR 23006KT 10SM FEW045 FEW080 28/22 A2990 RMK AO2 SLP124 T02780222
PHKO 231853Z 25004KT 10SM FEW050 SCT080 27/21 A2989 RMK AO2 SLP123 T02720211
PHKO 231753Z 00000KT 10SM SCT045 SCT065 26/21 A2988 RMK AO2 SLP120 T02610211 10267 20256 51012
PHKO 231653Z 00000KT 10SM SCT055 BKN070 26/21 A2988 RMK AO2 SLP117 T02610206
PHKO 231553Z 00000KT 10SM OVC050 26/20 A2986 RMK AO2 SLP112 T02610200
PHKO 231453Z AUTO 00000KT 10SM OVC050 26/19 A2985 RMK AO2 SLP108 T02610194 55004 TSNO
PHKO 231353Z AUTO 26006KT 10SM OVC065 26/22 A2984 RMK AO2 SLP106 T02610217 TSNO
PHKO 231253Z AUTO 27009KT 10SM BKN070 27/21 A2985 RMK AO2 SLP109 T02670206 TSNO
PHKO 231153Z AUTO 00000KT 10SM SCT021 26/22 A2986 RMK AO2 SLP112 T02560222 10278 20256 58015 TSNO
PHKO 231053Z AUTO 16004KT 10SM SCT065 26/22 A2988 RMK AO2 SLP118 T02610222 TSNO
PHKO 230953Z AUTO 14003KT 10SM CLR 26/22 A2989 RMK AO2 SLP122 T02610217 402890244 TSNO
PHKO 230853Z AUTO 00000KT 10SM FEW024 FEW050 27/22 A2990 RMK AO2 SLP127 T02670222 50007 TSNO
PHKO 230842Z AUTO 00000KT 10SM FEW024 27/22 A2991 RMK AO2 T02670222 TSNO
PHKO 230753Z 00000KT 10SM BKN022 OVC030 27/22 A2992 RMK AO2 SLP131 T02670222
PHKO 230700Z 13005KT 10SM BKN027 BKN033 OVC040 27/21 A2991 RMK AO2 T02720206
PHKO 230653Z 12005KT 10SM BKN030 OVC060 27/21 A2991 RMK AO2 SLP128 T02720211
PHKO 230553Z 14003KT 10SM OVC060 27/21 A2988 RMK AO2 SLP120 T02720211 10289 20272 53018
PHKO 230453Z COR 16005KT 10SM BKN060 28/21 A2986 RMK AO2 SLP113 T02780211
PHKO 230353Z 19003KT 10SM BKN060 28/22 A2985 RMK AO2 SLP107 T02780217
PHKO 230253Z 21004KT 10SM BKN060 OVC070 28/21 A2983 RMK AO2 SLP102 T02830211 55005
PHKO 230153Z 18004KT 10SM SCT045 BKN070 BKN090 28/21 A2983 RMK AO2 SLP102 T02830211
PHKO 230053Z 19005KT 10SM BKN045 BKN070 28/22 A2983 RMK AO2 SLP103 T02780222
PHKO 222353Z 21008KT 10SM SCT040 BKN070 28/22 A2985 RMK AO2 SLP107 T02830217 10289 20261 58017
PHKO 222253Z 18004KT 10SM SCT045 BKN060 28/22 A2987 RMK AO2 SLP114 T02780222
PHKO 222153Z 23007KT 10SM BKN060 28/23 A2989 RMK AO2 SLP120 T02830228
PHKO 222053Z 22009KT 10SM BKN040 28/23 A2990 RMK AO2 SLP125 T02830228 50003
PHKO 221953Z 21009KT 10SM FEW018 BKN046 BKN060 27/23 A2991 RMK AO2 SLP127 T02720228
PHKO 221900Z 19009KT 10SM FEW022 BKN036 OVC050 28/23 A2990 RMK AO2 T02780228
PHKO 221853Z 18008KT 10SM FEW020 BKN028 BKN055 28/23 A2990 RMK AO2 SLP125 T02780228
PHKO 221817Z 14006KT 10SM FEW020 BKN028 BKN055 27/22 A2989 RMK AO2 T02670222
PHKO 221753Z 14005KT 10SM FEW020 BKN040 26/22 A2989 RMK AO2 RAB1656E12 SLP121 P0000 60000 T02610222 10261 20244 51007
PHKO 221750Z 12003KT 10SM FEW020 BKN040 26/23 A2989 RMK AO2 RAB1656E12 P0000